createdAt,value
2019-04-27T00:00:38.190Z,13.90
2019-04-27T00:03:13.320Z,13.90
2019-04-27T00:05:46.844Z,13.90
2019-04-27T00:08:28.499Z,14.00
2019-04-27T00:11:09.725Z,14.10
2019-04-27T00:13:40.677Z,14.00
2019-04-27T00:16:11.265Z,14.00
2019-04-27T00:18:43.369Z,14.00
2019-04-27T00:21:32.916Z,14.00
2019-04-27T00:24:03.446Z,14.00
2019-04-27T00:26:33.446Z,14.10
2019-04-27T00:29:03.802Z,14.00
2019-04-27T00:31:33.757Z,14.00
2019-04-27T00:34:03.599Z,14.10
2019-04-27T00:36:40.340Z,14.00
2019-04-27T00:39:13.939Z,14.00
2019-04-27T00:41:43.932Z,14.10
2019-04-27T00:44:13.498Z,14.10
2019-04-27T00:46:43.204Z,14.10
2019-04-27T00:49:13.766Z,14.10
2019-04-27T00:51:43.396Z,14.10
2019-04-27T00:54:13.601Z,14.20
2019-04-27T00:57:00.761Z,14.20
2019-04-27T00:59:47.376Z,14.20
2019-04-27T01:02:18.101Z,14.10
2019-04-27T01:04:47.148Z,14.00
2019-04-27T01:07:16.582Z,13.90
2019-04-27T01:09:46.245Z,14.00
2019-04-27T01:12:15.890Z,13.90
2019-04-27T01:14:45.241Z,13.90
2019-04-27T01:17:14.330Z,14.00
2019-04-27T01:19:43.302Z,14.00
2019-04-27T01:22:12.458Z,14.00
2019-04-27T01:24:41.407Z,14.00
2019-04-27T01:27:15.021Z,13.90
2019-04-27T01:29:43.293Z,14.00
2019-04-27T01:32:13.860Z,14.00
2019-04-27T01:34:42.919Z,13.90
2019-04-27T01:37:11.932Z,13.80
2019-04-27T01:39:41.297Z,13.80
2019-04-27T01:42:10.689Z,13.70
2019-04-27T01:44:39.794Z,13.70
2019-04-27T01:47:10.048Z,13.60
2019-04-27T01:49:39.740Z,13.60
2019-04-27T01:52:09.675Z,13.60
2019-04-27T01:54:39.261Z,13.50
2019-04-27T01:57:10.309Z,13.40
2019-04-27T01:59:39.869Z,13.30
2019-04-27T02:02:13.328Z,13.40
2019-04-27T02:04:43.933Z,13.40
2019-04-27T02:07:12.947Z,13.40
2019-04-27T02:09:42.029Z,13.50
2019-04-27T02:12:12.359Z,13.40
2019-04-27T02:14:41.664Z,13.50
2019-04-27T02:17:10.603Z,13.50
2019-04-27T02:19:39.862Z,13.40
2019-04-27T02:22:08.815Z,13.40
2019-04-27T02:24:39.006Z,13.30
2019-04-27T02:27:09.014Z,13.30
2019-04-27T02:29:59.169Z,13.30
2019-04-27T02:32:30.026Z,13.30
2019-04-27T02:35:03.615Z,13.20
2019-04-27T02:37:32.635Z,13.00
2019-04-27T02:40:01.669Z,12.80
2019-04-27T02:42:32.423Z,12.80
2019-04-27T02:45:01.458Z,12.80
2019-04-27T02:47:30.508Z,12.90
2019-04-27T02:50:00.634Z,12.80
2019-04-27T02:52:31.535Z,12.90
2019-04-27T02:55:00.573Z,12.70
2019-04-27T02:57:30.380Z,12.70
2019-04-27T03:00:00.144Z,12.70
2019-04-27T03:02:33.953Z,12.60
2019-04-27T03:05:03.065Z,12.60
2019-04-27T03:07:32.034Z,12.60
2019-04-27T03:10:02.226Z,12.70
2019-04-27T03:12:33.557Z,12.70
2019-04-27T03:15:04.238Z,12.80
2019-04-27T03:17:34.867Z,12.90
2019-04-27T03:20:11.100Z,12.90
2019-04-27T03:22:42.054Z,12.90
2019-04-27T03:25:15.417Z,12.80
2019-04-27T03:27:45.890Z,12.90
2019-04-27T03:30:16.274Z,12.80
2019-04-27T03:32:45.879Z,12.70
2019-04-27T03:35:14.991Z,12.80
2019-04-27T03:37:44.955Z,12.80
2019-04-27T03:40:14.056Z,12.80
2019-04-27T03:42:45.176Z,12.80
2019-04-27T03:45:14.328Z,12.70
2019-04-27T03:47:43.357Z,12.70
2019-04-27T03:50:14.100Z,12.70
2019-04-27T03:52:50.914Z,12.80
2019-04-27T03:55:30.703Z,12.80
2019-04-27T03:58:21.422Z,12.80
2019-04-27T04:00:49.511Z,12.80
2019-04-27T04:03:20.365Z,12.70
2019-04-27T04:05:52.030Z,12.60
2019-04-27T04:08:20.794Z,12.60
2019-04-27T04:10:51.559Z,12.60
2019-04-27T04:13:22.640Z,12.70
2019-04-27T04:16:00.199Z,12.70
2019-04-27T04:18:31.773Z,12.70
2019-04-27T04:21:00.928Z,12.70
2019-04-27T04:23:30.178Z,12.70
2019-04-27T04:25:59.865Z,12.70
2019-04-27T04:28:29.688Z,12.60
2019-04-27T04:31:00.577Z,12.70
2019-04-27T04:33:30.382Z,12.70
2019-04-27T04:35:59.975Z,12.70
2019-04-27T04:38:30.501Z,12.70
2019-04-27T04:41:01.488Z,12.70
2019-04-27T04:43:32.451Z,12.70
2019-04-27T04:46:04.943Z,12.70
2019-04-27T04:48:33.834Z,12.70
2019-04-27T04:51:03.076Z,12.70
2019-04-27T04:53:32.140Z,12.70
2019-04-27T04:56:01.177Z,12.60
2019-04-27T04:58:30.235Z,12.50
2019-04-27T05:00:59.593Z,12.60
2019-04-27T05:03:30.226Z,12.60
2019-04-27T05:05:59.291Z,12.70
2019-04-27T05:08:31.088Z,12.70
2019-04-27T05:11:00.385Z,12.60
2019-04-27T05:13:29.486Z,12.50
2019-04-27T05:15:58.971Z,12.30
2019-04-27T05:18:29.333Z,12.40
2019-04-27T05:21:06.066Z,12.30
2019-04-27T05:23:35.059Z,12.30
2019-04-27T05:26:04.035Z,12.30
2019-04-27T05:28:33.006Z,12.20
2019-04-27T05:31:02.001Z,12.20
2019-04-27T05:33:31.303Z,12.30
2019-04-27T05:36:00.306Z,12.40
2019-04-27T05:38:29.537Z,12.20
2019-04-27T05:40:58.815Z,12.30
2019-04-27T05:43:33.354Z,12.40
2019-04-27T05:46:35.672Z,12.40
2019-04-27T05:49:07.138Z,12.50
2019-04-27T05:51:38.163Z,12.60
2019-04-27T05:54:09.026Z,12.50
2019-04-27T05:56:39.062Z,12.60
2019-04-27T05:59:09.267Z,12.70
2019-04-27T06:01:38.902Z,12.70
2019-04-27T06:04:09.042Z,12.70
2019-04-27T06:06:39.873Z,12.70
2019-04-27T06:09:09.472Z,12.70
2019-04-27T06:11:39.986Z,12.70
2019-04-27T06:14:09.823Z,12.70
2019-04-27T06:16:39.562Z,12.70
2019-04-27T06:19:09.674Z,12.60
2019-04-27T06:21:40.118Z,12.60
2019-04-27T06:24:09.514Z,12.40
2019-04-27T06:26:39.896Z,12.30
2019-04-27T06:29:09.558Z,12.30
2019-04-27T06:31:39.680Z,12.20
2019-04-27T06:34:09.845Z,12.10
2019-04-27T06:36:39.082Z,12.10
2019-04-27T06:39:09.809Z,12.10
2019-04-27T06:41:39.959Z,12.00
2019-04-27T06:44:11.455Z,12.20
2019-04-27T06:46:40.555Z,12.30
2019-04-27T06:49:11.039Z,12.50
2019-04-27T06:51:40.454Z,12.60
2019-04-27T06:54:09.526Z,12.70
2019-04-27T06:56:39.032Z,12.70
2019-04-27T06:59:08.742Z,12.60
2019-04-27T07:01:39.053Z,12.60
2019-04-27T07:04:10.496Z,12.50
2019-04-27T07:06:52.820Z,12.50
2019-04-27T07:09:09.769Z,12.50
2019-04-27T07:11:39.637Z,12.50
2019-04-27T07:14:11.223Z,12.50
2019-04-27T07:16:39.488Z,12.60
2019-04-27T07:19:09.450Z,12.70
2019-04-27T07:21:39.931Z,12.70
2019-04-27T07:24:09.320Z,12.80
2019-04-27T07:26:39.076Z,12.80
2019-04-27T07:29:09.637Z,12.90
2019-04-27T07:31:40.074Z,13.10
2019-04-27T07:34:09.493Z,13.20
2019-04-27T07:36:39.267Z,13.40
2019-04-27T07:39:10.967Z,13.50
2019-04-27T07:41:39.927Z,13.60
2019-04-27T07:44:13.442Z,13.70
2019-04-27T07:46:42.716Z,13.90
2019-04-27T07:49:11.688Z,13.90
2019-04-27T07:51:40.700Z,13.90
2019-04-27T07:54:09.728Z,13.90
2019-04-27T07:56:39.058Z,13.80
2019-04-27T07:59:09.086Z,13.90
2019-04-27T08:01:39.286Z,13.80
2019-04-27T08:04:09.042Z,13.90
2019-04-27T08:06:38.842Z,13.90
2019-04-27T08:09:09.384Z,13.90
2019-04-27T08:11:39.157Z,13.90
2019-04-27T08:14:08.844Z,14.10
2019-04-27T08:16:38.792Z,14.20
2019-04-27T08:19:09.918Z,14.20
2019-04-27T08:21:44.272Z,14.10
2019-04-27T08:24:11.221Z,14.10
2019-04-27T08:26:59.431Z,13.70
2019-04-27T08:29:36.280Z,13.60
2019-04-27T08:32:09.981Z,13.50
2019-04-27T08:34:39.711Z,13.20
2019-04-27T08:37:09.313Z,13.10
2019-04-27T08:39:39.655Z,12.90
2019-04-27T08:42:11.797Z,12.60
2019-04-27T08:44:40.795Z,12.40
2019-04-27T08:47:09.820Z,12.40
2019-04-27T08:49:39.403Z,12.50
2019-04-27T08:52:09.370Z,12.50
2019-04-27T08:54:39.425Z,12.50
2019-04-27T08:57:09.745Z,12.70
2019-04-27T08:59:39.429Z,12.90
2019-04-27T09:02:08.885Z,13.10
2019-04-27T09:04:39.500Z,13.30
2019-04-27T09:07:26.708Z,13.40
2019-04-27T09:09:57.403Z,13.50
2019-04-27T09:12:44.350Z,13.40
2019-04-27T09:15:15.284Z,13.30
2019-04-27T09:17:45.893Z,13.30
2019-04-27T09:20:19.526Z,13.30
2019-04-27T09:22:49.285Z,13.30
2019-04-27T09:25:19.339Z,13.30
2019-04-27T09:27:49.260Z,13.40
2019-04-27T09:30:19.119Z,13.60
2019-04-27T09:32:48.245Z,13.90
2019-04-27T09:35:17.262Z,14.10
2019-04-27T09:37:46.228Z,14.10
2019-04-27T09:40:17.144Z,14.30
2019-04-27T09:42:46.450Z,14.70
2019-04-27T09:45:16.631Z,15.10
2019-04-27T09:47:46.819Z,15.40
2019-04-27T09:50:16.349Z,15.60
2019-04-27T09:52:45.964Z,16.00
2019-04-27T09:55:16.339Z,16.30
2019-04-27T09:57:46.504Z,16.30
2019-04-27T10:00:16.137Z,16.20
2019-04-27T10:02:46.617Z,16.40
2019-04-27T10:05:17.157Z,17.20
2019-04-27T10:07:47.684Z,17.40
2019-04-27T10:10:17.458Z,17.30
2019-04-27T10:12:46.674Z,17.10
2019-04-27T10:15:16.686Z,16.80
2019-04-27T10:17:45.770Z,16.50
2019-04-27T10:20:14.794Z,16.30
2019-04-27T10:22:43.908Z,16.40
2019-04-27T10:25:25.097Z,17.10
2019-04-27T10:27:59.941Z,18.00
2019-04-27T10:30:30.064Z,18.50
2019-04-27T10:32:59.024Z,18.30
2019-04-27T10:35:27.980Z,18.20
2019-04-27T10:37:57.017Z,18.40
2019-04-27T10:40:26.438Z,18.10
2019-04-27T10:42:56.061Z,18.50
2019-04-27T10:45:25.232Z,18.20
2019-04-27T10:47:56.085Z,17.90
2019-04-27T10:50:26.553Z,18.10
2019-04-27T10:52:58.813Z,18.40
2019-04-27T10:55:26.748Z,18.10
2019-04-27T10:57:55.809Z,17.50
2019-04-27T11:00:32.696Z,16.90
2019-04-27T11:03:01.662Z,16.20
2019-04-27T11:05:35.878Z,16.00
2019-04-27T11:08:06.605Z,15.40
2019-04-27T11:10:36.103Z,15.00
2019-04-27T11:13:06.238Z,14.70
2019-04-27T11:15:37.130Z,14.40
2019-04-27T11:18:06.495Z,14.30
2019-04-27T11:20:36.300Z,14.10
2019-04-27T11:23:09.423Z,13.90
2019-04-27T11:25:36.525Z,13.90
2019-04-27T11:28:05.890Z,14.00
2019-04-27T11:30:34.929Z,14.20
2019-04-27T11:33:06.119Z,14.50
2019-04-27T11:35:39.109Z,15.40
2019-04-27T11:38:08.192Z,16.30
2019-04-27T11:40:38.350Z,17.10
2019-04-27T11:43:07.714Z,17.60
2019-04-27T11:45:36.843Z,18.10
2019-04-27T11:48:06.077Z,18.50
2019-04-27T11:50:35.771Z,18.70
2019-04-27T11:53:06.194Z,18.90
2019-04-27T11:55:35.413Z,19.10
2019-04-27T11:58:04.436Z,19.20
2019-04-27T12:00:33.482Z,19.40
2019-04-27T12:03:02.558Z,19.50
2019-04-27T12:05:31.514Z,19.30
2019-04-27T12:08:00.548Z,18.70
2019-04-27T12:10:29.594Z,17.90
2019-04-27T12:12:58.817Z,17.30
2019-04-27T12:15:28.135Z,16.80
2019-04-27T12:17:57.169Z,16.30
2019-04-27T12:20:26.149Z,16.10
2019-04-27T12:22:55.193Z,15.40
2019-04-27T12:25:24.225Z,14.70
2019-04-27T12:27:54.837Z,14.50
2019-04-27T12:30:26.173Z,14.50
2019-04-27T12:32:55.833Z,14.70
2019-04-27T12:35:25.717Z,15.10
2019-04-27T12:37:56.034Z,15.30
2019-04-27T12:40:26.868Z,15.60
2019-04-27T12:42:56.194Z,15.70
2019-04-27T12:45:26.677Z,15.70
2019-04-27T12:47:56.693Z,16.00
2019-04-27T12:50:26.964Z,16.80
2019-04-27T12:53:03.774Z,17.30
2019-04-27T12:55:51.780Z,17.30
2019-04-27T12:58:28.421Z,17.80
2019-04-27T13:01:01.534Z,18.10
2019-04-27T13:03:30.631Z,17.80
2019-04-27T13:05:59.629Z,17.60
2019-04-27T13:08:28.608Z,17.80
2019-04-27T13:10:57.602Z,17.90
2019-04-27T13:13:26.769Z,17.60
2019-04-27T13:15:56.413Z,16.90
2019-04-27T13:18:25.966Z,16.30
2019-04-27T13:20:55.134Z,15.30
2019-04-27T13:23:24.202Z,14.80
2019-04-27T13:25:53.227Z,14.50
2019-04-27T13:28:22.198Z,14.20
2019-04-27T13:30:51.187Z,13.90
2019-04-27T13:33:20.144Z,13.60
2019-04-27T13:35:49.134Z,13.60
2019-04-27T13:38:18.278Z,13.70
2019-04-27T13:40:49.277Z,13.80
2019-04-27T13:43:29.078Z,14.00
2019-04-27T13:46:02.805Z,14.10
2019-04-27T13:48:51.268Z,14.30
2019-04-27T13:51:37.759Z,15.00
2019-04-27T13:54:17.310Z,15.50
2019-04-27T13:56:37.897Z,15.90
2019-04-27T13:59:07.698Z,16.10
2019-04-27T14:01:37.048Z,16.10
2019-04-27T14:04:07.082Z,15.80
2019-04-27T14:06:36.448Z,15.50
2019-04-27T14:09:09.197Z,15.20
2019-04-27T14:11:39.338Z,14.80
2019-04-27T14:14:08.500Z,14.30
2019-04-27T14:16:39.209Z,14.60
2019-04-27T14:19:08.568Z,15.00
2019-04-27T14:21:38.876Z,15.20
2019-04-27T14:24:07.832Z,15.40
2019-04-27T14:26:38.445Z,15.80
2019-04-27T14:29:08.714Z,16.30
2019-04-27T14:31:39.617Z,16.60
2019-04-27T14:34:09.222Z,16.80
2019-04-27T14:36:40.490Z,16.70
2019-04-27T14:39:10.658Z,16.50
2019-04-27T14:41:40.642Z,16.00
2019-04-27T14:44:10.668Z,15.50
2019-04-27T14:46:40.156Z,15.20
2019-04-27T14:49:09.196Z,15.00
2019-04-27T14:51:39.839Z,15.10
2019-04-27T14:54:09.330Z,15.10
2019-04-27T14:56:38.749Z,15.10
2019-04-27T14:59:08.165Z,15.20
2019-04-27T15:01:38.161Z,15.40
2019-04-27T15:04:07.883Z,15.50
2019-04-27T15:06:37.186Z,15.40
2019-04-27T15:09:07.673Z,15.40
2019-04-27T15:11:36.732Z,15.60
2019-04-27T15:14:05.968Z,15.50
2019-04-27T15:16:37.960Z,15.30
2019-04-27T15:19:07.359Z,15.10
2019-04-27T15:21:38.886Z,14.70
2019-04-27T15:24:10.029Z,14.30
2019-04-27T15:26:38.097Z,13.90
2019-04-27T15:29:08.208Z,13.80
2019-04-27T15:31:40.666Z,13.60
2019-04-27T15:34:11.279Z,13.50
2019-04-27T15:36:52.851Z,13.60
2019-04-27T15:39:26.941Z,13.80
2019-04-27T15:42:08.223Z,14.10
2019-04-27T15:44:36.471Z,14.20
2019-04-27T15:47:08.527Z,14.20
2019-04-27T15:49:36.545Z,14.10
2019-04-27T15:52:08.951Z,14.20
2019-04-27T15:54:38.021Z,14.40
2019-04-27T15:57:10.549Z,14.50
2019-04-27T15:59:40.817Z,14.70
2019-04-27T16:02:11.773Z,14.70
2019-04-27T16:04:40.093Z,14.50
2019-04-27T16:07:09.947Z,14.40
2019-04-27T16:09:38.990Z,14.10
2019-04-27T16:12:12.599Z,14.10
2019-04-27T16:14:40.944Z,14.10
2019-04-27T16:17:11.420Z,13.90
2019-04-27T16:19:46.794Z,13.90
2019-04-27T16:22:10.987Z,13.80
2019-04-27T16:24:39.956Z,13.90
2019-04-27T16:27:09.029Z,14.00
2019-04-27T16:29:38.986Z,14.00
2019-04-27T16:32:11.346Z,14.10
2019-04-27T16:34:41.338Z,14.10
2019-04-27T16:37:14.033Z,14.10
2019-04-27T16:39:45.778Z,14.00
2019-04-27T16:42:14.230Z,13.90
2019-04-27T16:44:48.252Z,13.90
2019-04-27T16:47:18.854Z,13.90
2019-04-27T16:49:48.310Z,13.90
2019-04-27T16:52:17.403Z,13.90
2019-04-27T16:54:49.820Z,13.90
2019-04-27T16:57:18.435Z,13.80
2019-04-27T17:02:23.733Z,13.70
2019-04-27T17:04:52.804Z,13.50
2019-04-27T17:07:19.880Z,13.40
2019-04-27T17:09:49.490Z,13.40
2019-04-27T17:12:23.782Z,13.30
2019-04-27T17:12:40.261Z,13.80
2019-04-27T17:15:05.932Z,13.40
2019-04-27T17:17:42.495Z,13.40
2019-04-27T17:20:12.988Z,13.50
2019-04-27T17:22:40.461Z,13.40
2019-04-27T17:25:09.759Z,13.40
2019-04-27T17:27:43.102Z,13.30
2019-04-27T17:30:12.724Z,13.30
2019-04-27T17:32:48.720Z,13.30
2019-04-27T17:35:18.388Z,13.30
2019-04-27T17:37:48.882Z,13.20
2019-04-27T17:40:18.495Z,13.30
2019-04-27T17:42:48.149Z,13.30
2019-04-27T17:45:19.387Z,13.30
2019-04-27T17:47:48.288Z,13.40
2019-04-27T17:50:24.834Z,13.40
2019-04-27T17:52:54.917Z,13.40
2019-04-27T17:55:24.123Z,13.40
2019-04-27T17:57:50.144Z,13.40
2019-04-27T18:00:20.029Z,13.50
2019-04-27T18:02:48.997Z,13.40
2019-04-27T18:05:18.107Z,13.40
2019-04-27T18:07:48.653Z,13.50
2019-04-27T18:10:23.844Z,13.40
2019-04-27T18:12:50.162Z,13.30
2019-04-27T18:15:19.879Z,13.40
2019-04-27T18:17:52.229Z,13.50
2019-04-27T18:20:25.829Z,13.40
2019-04-27T18:22:58.944Z,13.40
2019-04-27T18:25:28.658Z,13.30
2019-04-27T18:28:15.123Z,13.30
2019-04-27T18:30:59.066Z,13.30
2019-04-27T18:33:32.582Z,13.20
2019-04-27T18:36:05.215Z,13.00
2019-04-27T18:38:30.749Z,13.00
2019-04-27T18:41:03.020Z,13.00
2019-04-27T18:43:31.549Z,13.00
2019-04-27T18:46:00.603Z,13.00
2019-04-27T18:48:31.268Z,13.10
2019-04-27T18:51:01.889Z,13.10
2019-04-27T18:53:32.689Z,13.10
2019-04-27T18:56:05.281Z,13.10
2019-04-27T18:58:32.358Z,13.20
2019-04-27T19:01:01.694Z,13.20
2019-04-27T19:03:31.728Z,13.20
2019-04-27T19:06:01.019Z,13.20
2019-04-27T19:08:29.983Z,13.20
2019-04-27T19:11:00.385Z,13.10
2019-04-27T19:13:29.622Z,13.20
2019-04-27T19:15:59.881Z,13.30
2019-04-27T19:18:29.046Z,13.20
2019-04-27T19:20:58.530Z,13.20
2019-04-27T19:23:28.466Z,13.10
2019-04-27T19:25:59.192Z,13.10
2019-04-27T19:28:41.634Z,13.10
2019-04-27T19:31:18.884Z,13.10
2019-04-27T19:33:48.497Z,13.10
2019-04-27T19:36:19.105Z,13.10
2019-04-27T19:38:49.790Z,13.00
2019-04-27T19:41:18.875Z,13.00
2019-04-27T19:43:48.833Z,13.00
2019-04-27T19:46:20.067Z,13.00
2019-04-27T19:48:49.952Z,13.10
2019-04-27T19:51:19.216Z,13.00
2019-04-27T19:53:48.229Z,13.10
2019-04-27T19:56:21.380Z,13.00
2019-04-27T19:58:52.025Z,13.00
2019-04-27T20:01:28.675Z,13.00
2019-04-27T20:03:59.799Z,13.00
2019-04-27T20:06:29.149Z,13.00
2019-04-27T20:09:02.917Z,13.00
2019-04-27T20:11:31.898Z,12.90
2019-04-27T20:14:00.994Z,12.90
2019-04-27T20:16:31.737Z,12.90
2019-04-27T20:19:01.499Z,12.80
2019-04-27T20:21:30.939Z,12.90
2019-04-27T20:24:01.613Z,12.80
2019-04-27T20:26:31.167Z,12.80
2019-04-27T20:29:01.520Z,12.90
2019-04-27T20:31:32.527Z,12.90
2019-04-27T20:34:01.630Z,12.90
2019-04-27T20:36:31.342Z,12.90
2019-04-27T20:39:01.274Z,12.90
2019-04-27T20:41:31.891Z,12.90
2019-04-27T20:44:02.380Z,12.90
2019-04-27T20:46:31.760Z,12.90
2019-04-27T20:49:02.654Z,12.80
2019-04-27T20:51:52.566Z,12.90
2019-04-27T20:54:22.313Z,12.80
2019-04-27T20:56:53.519Z,12.90
2019-04-27T20:59:22.222Z,12.70
2019-04-27T21:01:51.337Z,12.70
2019-04-27T21:04:21.980Z,12.70
2019-04-27T21:07:01.456Z,12.70
2019-04-27T21:09:32.250Z,12.70
2019-04-27T21:12:01.070Z,12.70
2019-04-27T21:14:31.672Z,12.60
2019-04-27T21:17:01.742Z,12.60
2019-04-27T21:19:31.336Z,12.70
2019-04-27T21:22:01.236Z,12.70
2019-04-27T21:24:31.243Z,12.60
2019-04-27T21:27:00.559Z,12.60
2019-04-27T21:29:31.182Z,12.70
2019-04-27T21:32:01.026Z,12.70
2019-04-27T21:34:31.051Z,12.70
2019-04-27T21:37:01.075Z,12.70
2019-04-27T21:39:31.917Z,12.60
2019-04-27T21:42:01.243Z,12.50
2019-04-27T21:44:31.889Z,12.50
2019-04-27T21:47:01.039Z,12.60
2019-04-27T21:49:31.425Z,12.50
2019-04-27T21:52:08.217Z,12.50
2019-04-27T21:54:38.874Z,12.40
2019-04-27T21:57:07.909Z,12.40
2019-04-27T21:59:36.883Z,12.30
2019-04-27T22:02:07.701Z,12.30
2019-04-27T22:04:37.446Z,12.30
2019-04-27T22:07:06.520Z,12.30
2019-04-27T22:09:35.471Z,12.30
2019-04-27T22:12:04.752Z,12.30
2019-04-27T22:14:33.747Z,12.30
2019-04-27T22:17:02.787Z,12.40
2019-04-27T22:19:31.953Z,12.40
2019-04-27T22:22:02.619Z,12.40
2019-04-27T22:24:33.518Z,12.30
2019-04-27T22:27:02.478Z,12.30
2019-04-27T22:29:32.202Z,12.20
2019-04-27T22:32:01.766Z,12.20
2019-04-27T22:34:31.294Z,12.20
2019-04-27T22:37:00.949Z,12.20
2019-04-27T22:39:35.530Z,12.20
2019-04-27T22:42:12.102Z,12.20
2019-04-27T22:44:45.453Z,12.30
2019-04-27T22:47:14.442Z,12.20
2019-04-27T22:49:43.464Z,12.20
2019-04-27T22:52:12.417Z,12.20
2019-04-27T22:54:42.110Z,12.20
2019-04-27T22:57:13.105Z,12.10
2019-04-27T22:59:43.714Z,12.10
2019-04-27T23:02:14.730Z,12.00
2019-04-27T23:04:45.327Z,12.00
2019-04-27T23:07:14.382Z,12.00
2019-04-27T23:09:43.420Z,12.00
2019-04-27T23:12:12.781Z,12.00
2019-04-27T23:14:41.752Z,12.00
2019-04-27T23:17:28.772Z,12.00
2019-04-27T23:19:57.811Z,12.00
2019-04-27T23:22:26.917Z,12.00
2019-04-27T23:24:55.979Z,12.00
2019-04-27T23:27:24.995Z,12.00
2019-04-27T23:29:54.474Z,11.90
2019-04-27T23:32:28.187Z,11.90
2019-04-27T23:34:56.384Z,11.90
2019-04-27T23:37:25.266Z,11.90
2019-04-27T23:39:54.535Z,11.80
2019-04-27T23:42:23.807Z,11.80
2019-04-27T23:44:52.757Z,11.90
2019-04-27T23:47:21.725Z,11.90
2019-04-27T23:49:50.913Z,11.90
2019-04-27T23:52:37.984Z,11.90
2019-04-27T23:55:06.975Z,11.90
2019-04-27T23:57:35.932Z,12.00
